KLNN

Details ICAO KLNN (LNN)
Name WILLOUGHBY LOST NATION MUNI
Region United States
Timezone America/New_York (UTC-5.0)
Plans Departing 5
Arriving 0
Stats Elevation 626 ft / 191 m (AMSL)
Location 41.683902° -81.389639°
Runways 2
Magnetic Variation 8.612° W
Sunrise 2017-12-18 12:49:02 UTC / 2017-12-18 07:49:02 Local
Sunset 2017-12-18 21:58:13 UTC / 2017-12-18 16:58:13 Local
Advertisement - Login to hide

Runways

ID Width Length Bearing (true) Bearing (mag) Surface Threshold Offset Overrun Length
05 100 ft / 30 m 5,025 ft / 1,532 m 44.48° 53.09° Asphalt 428 ft / 130 m 0 ft / 0 m
10 100 ft / 30 m 4,262 ft / 1,299 m 90.51° 99.12° Asphalt 400 ft / 122 m 0 ft / 0 m
23 100 ft / 30 m 5,025 ft / 1,532 m 224.49° 233.10° Asphalt 0 ft / 0 m 0 ft / 0 m
28 100 ft / 30 m 4,262 ft / 1,299 m 270.52° 279.13° Asphalt 1,124 ft / 343 m 0 ft / 0 m

Map

Weather


0- 5 10 15 20 25 30 35+ Temperature / ° C

Clouds and Precipitation
Forecast for 2017-12-18 18:00 UTC. Updated a minute ago

Ground ~20,000 ft ~40,000 ft Winds

METAR

KLNN 181515Z AUTO 20007KT 10SM OVC016 03/02 A2999 RMK AO1 T00320015

TAF

Not found

Frequencies

Unicom 122.72 MHz CTAF/UNICOM
Approach 125.35 MHz CLEVELAND APP/DEP
Warning: Do not use this data for real-world aviation or navigation. No guarantee of current accuracy is given.